Monday, December 5, 2016, 11:31 AM EST

KSBY, Salisbury-wicomico Cty Reg

Location: Salisbury, MD, United States Lat: 38.333
Local Time: 11:31 AM EST (16:31 GMT) Lon: -75.5
Time Zone: US/Eastern Elev: 52 ft

Show me the last for .
Show Decoded

2016-12-05 10:54 METAR KSBY 051554Z 31007KT 10SM OVC008 08/07 A3001 RMK AO2 CIG 005V010 SLP164
                 T00830067 =
2016-12-05 10:18 METAR KSBY 051518Z 32007KT 10SM OVC007 08/07 A3001 RMK AO2 CIG 004V010 T00780072
                 =
2016-12-05 09:54 METAR KSBY 051454Z 31006KT 10SM OVC003 07/07 A3002 RMK AO2 SLP167 60000
                 T00720072 51007 =
2016-12-05 08:54 METAR KSBY 051354Z 31004KT 6SM BR OVC004 07/06 A3002 RMK AO2 SLP167 T00670061 =
2016-12-05 07:54 METAR KSBY 051254Z 00000KT 9SM BKN004 OVC055 06/06 A3000 RMK AO2 RAE1156 SLP161
                 P0000 T00610056 =
2016-12-05 07:40 METAR KSBY 051240Z 8SM FEW003 OVC055 06/06 A2999 RMK AO2 RAE1156 P0000 T00610056
                 =
2016-12-05 06:54 METAR KSBY 051154Z 16005KT 7SM -RA BKN043 OVC050 06/05 A3000 RMK AO2 RAE12B44
                 SLP160 P0000 60024 70033 T00560050 10056 20039 58015 =
2016-12-05 05:59 METAR KSBY 051059Z 00000KT 4SM -RA BR FEW006 SCT014 OVC031 05/05 A3003 RMK AO2
                 P0000 T00500050 =
2016-12-05 05:54 METAR KSBY 051054Z 00000KT 4SM -RA BR SCT006 BKN013 OVC021 05/05 A3003 RMK AO2
                 SLP173 P0005 T00500050 =
2016-12-05 05:47 METAR KSBY 051047Z 00000KT 3SM RA BR SCT006 BKN009 OVC019 05/04 A3003 RMK AO2
                 P0005 T00500044 =
2016-12-05 05:23 METAR KSBY 051023Z AUTO 00000KT 4SM -RA BR SCT006 OVC014 05/05 A3003 RMK AO2
                 P0002 T00500050 TSNO =
2016-12-05 04:54 METAR KSBY 050954Z AUTO 31004KT 3SM -RA BR OVC004 05/04 A3004 RMK AO2 SLP176
                 P0005 T00500044 TSNO =
2016-12-05 04:46 METAR KSBY 050946Z AUTO 00000KT 4SM -RA BR BKN004 OVC008 05/04 A3004 RMK AO2
                 P0004 T00500044 TSNO =
2016-12-05 04:14 METAR KSBY 050914Z AUTO 29004KT 4SM -RA BR BKN008 OVC015 04/04 A3004 RMK AO2
                 P0002 T00440044 TSNO =
2016-12-05 03:54 METAR KSBY 050854Z AUTO 26003KT 3SM RA BR BKN017 OVC024 04/04 A3004 RMK AO2
                 SLP175 P0007 60014 T00440039 56018 TSNO =
2016-12-05 03:32 METAR KSBY 050832Z AUTO 00000KT 4SM -RA BR FEW017 OVC028 04/04 A3004 RMK AO2
                 P0004 T00440039 TSNO =
2016-12-05 02:54 METAR KSBY 050754Z AUTO 00000KT 4SM -RA BR OVC033 04/04 A3004 RMK AO2 SLP176
                 P0005 T00440044 TSNO =
2016-12-05 01:54 METAR KSBY 050654Z AUTO 13004KT 6SM -RA BR BKN055 OVC070 04/03 A3006 RMK AO2
                 SLP183 P0002 T00390033 TSNO =
2016-12-05 00:54 METAR KSBY 050554Z AUTO 12004KT 7SM -RA SCT050 OVC065 04/03 A3009 RMK AO2 SLP193
                 P0005 60009 T00390033 10050 20039 58024 TSNO =
2016-12-04 23:54 METAR KSBY 050454Z AUTO 16003KT 10SM -RA OVC065 04/03 A3013 RMK AO2 SLP205 P0003
                 T00440033 400830006 TSNO =
2016-12-04 22:54 METAR KSBY 050354Z AUTO 00000KT 10SM -RA OVC065 04/02 A3016 =
2016-12-04 21:54 METAR KSBY 050254Z 19003KT 10SM OVC070 05/02 A3016 RMK AO2 SLP217 T00500017
                 58009 =
2016-12-04 20:54 METAR KSBY 050154Z 18003KT 10SM OVC075 05/02 A3017 RMK AO2 SLP220 T00500017 =
2016-12-04 19:54 METAR KSBY 050054Z 00000KT 10SM OVC080 05/02 A3019 RMK AO2 SLP225 T00500022 =
2016-12-04 18:54 METAR KSBY 042354Z 00000KT 10SM CLR 05/02 A3019 RMK AO2 SLP226 T00500017 10083
                 20044 58010 =
2016-12-04 17:54 METAR KSBY 042254Z 00000KT 10SM CLR 05/02 A3021 RMK AO2 SLP232 T00500017 =
2016-12-04 16:54 METAR KSBY 042154Z 18003KT 10SM CLR 06/01 A3021 RMK AO2 SLP233 T00560011 =
2016-12-04 15:54 METAR KSBY 042054Z 27003KT 10SM CLR 07/M01 A3022 RMK AO2 SLP237 T00721006 55001
                 =
2016-12-04 14:54 METAR KSBY 041954Z 26003KT 10SM CLR 08/M01 A3022 RMK AO2 SLP236 T00781011 =
2016-12-04 13:54 METAR KSBY 041854Z 26005KT 10SM CLR 08/M01 A3022 RMK AO2 SLP236 T00831011 =
2016-12-04 12:54 METAR KSBY 041754Z 31005KT 10SM CLR 08/M01 A3022 RMK AO2 SLP238 T00831011 10083
                 20006 56019 =
2016-12-04 11:54 METAR KSBY 041654Z 34004KT 10SM CLR 08/M01 A3024 RMK AO2 SLP243 T00781006 =

Support USWX by starting your Amazon purchase here.